Time;durP1;ratioP1;P1;durP2;ratioP2;P2;SDS_P1;SDS_P2;PMS_P1;PMS_P2;Temp;Humidity;BMP_temperature;BMP_pressure;BME280_temperature;BME280_humidity;BME280_pressure;Samples;Min_cycle;Max_cycle;Signal;HPM_P1;HPM_P2
2022/10/13 00:00:45;;;;;;;;;;;;;;;10.67;83.21;98562.53;5071856;28;20435;-56
2022/10/13 00:03:14;;;;;;;;;;;;;;;10.67;83.42;98562.53;5067063;28;19931;-56
2022/10/13 00:05:42;;;;;;;;;;;;;;;10.61;83.08;98563.72;5069657;28;20389;-56
2022/10/13 00:08:10;;;;;;;;;;;;;;;10.55;83.09;98562.19;5071931;28;19932;-56
2022/10/13 00:10:46;;;;;;;;;;;;;;;10.55;83.24;98560.28;5070663;28;20014;-56
2022/10/13 00:19:03;;;;;;;;;;;;;;;10.47;83.24;98569.06;5071242;28;19924;-56
2022/10/13 00:21:31;;;;;;;;;;;;;;;10.47;83.40;98575.31;5051752;28;19955;-56
2022/10/13 00:23:59;;;;;;;;;;;;;;;10.55;83.37;98573.06;5071183;28;19924;-56
2022/10/13 00:26:26;;;;;;;;;;;;;;;10.52;83.46;98576.34;5071226;28;20529;-56
2022/10/13 00:28:56;;;;;;;;;;;;;;;10.52;83.19;98566.28;5061713;28;20284;-56
2022/10/13 00:31:25;;;;;;;;;;;;;;;10.48;83.25;98581.56;5068019;28;19925;-56
2022/10/13 00:33:53;;;;;;;;;;;;;;;10.48;83.31;98579.63;5069191;28;19935;-56
2022/10/13 00:36:23;;;;;;;;;;;;;;;10.48;83.41;98571.50;5068815;28;19974;-56
2022/10/13 00:38:52;;;;;;;;;;;;;;;10.50;83.04;98571.22;5070982;28;20003;-56
2022/10/13 00:41:22;;;;;;;;;;;;;;;10.40;83.49;98574.88;5070921;28;19925;-56
2022/10/13 00:43:52;;;;;;;;;;;;;;;10.40;83.66;98565.94;5071127;28;19970;-56
2022/10/13 00:46:22;;;;;;;;;;;;;;;10.42;83.30;98567.25;5081563;28;20015;-56
2022/10/13 00:48:56;;;;;;;;;;;;;;;10.40;82.82;98574.88;5070715;28;19925;-56
2022/10/13 00:51:28;;;;;;;;;;;;;;;10.38;82.93;98568.13;5068929;28;19931;-56
2022/10/13 00:53:57;;;;;;;;;;;;;;;10.44;82.80;98575.91;5059122;28;20019;-56
2022/10/13 00:56:50;;;;;;;;;;;;;;;10.39;82.63;98573.28;5070380;28;19924;-56
2022/10/13 00:59:22;;;;;;;;;;;;;;;10.35;82.64;98576.88;5086424;28;19925;-56
2022/10/13 01:01:55;;;;;;;;;;;;;;;10.35;82.46;98577.66;5070672;28;19951;-56
2022/10/13 01:04:23;;;;;;;;;;;;;;;10.27;82.07;98577.50;5070919;28;19933;-56
2022/10/13 01:06:51;;;;;;;;;;;;;;;10.19;82.19;98571.63;5066194;28;19956;-56
2022/10/13 01:09:19;;;;;;;;;;;;;;;10.21;82.26;98566.69;5070597;28;20398;-56
2022/10/13 01:11:55;;;;;;;;;;;;;;;10.27;82.34;98574.78;5070982;28;20381;-56
2022/10/13 01:14:26;;;;;;;;;;;;;;;10.22;82.34;98578.34;5052697;28;19928;-56
2022/10/13 01:16:58;;;;;;;;;;;;;;;10.23;82.17;98578.09;5070242;28;19924;-56
2022/10/13 01:19:30;;;;;;;;;;;;;;;10.25;82.27;98577.00;5070724;28;20039;-57
2022/10/13 01:22:02;;;;;;;;;;;;;;;10.24;82.38;98565.34;5069702;28;20373;-56
2022/10/13 01:24:36;;;;;;;;;;;;;;;10.29;82.36;98570.69;5079665;28;19928;-56
2022/10/13 01:27:08;;;;;;;;;;;;;;;10.22;82.48;98567.50;5057844;28;19971;-56
2022/10/13 01:29:54;;;;;;;;;;;;;;;10.27;82.39;98574.78;5072433;28;20292;-56
2022/10/13 01:35:52;;;;;;;;;;;;;;;10.23;82.44;98571.84;5069201;28;19928;-56
2022/10/13 01:38:29;;;;;;;;;;;;;;;10.24;82.54;98570.78;5076224;28;20019;-56
2022/10/13 01:41:00;;;;;;;;;;;;;;;10.25;82.58;98561.50;5068717;28;20433;-56
2022/10/13 01:43:28;;;;;;;;;;;;;;;10.28;82.26;98566.38;5070107;28;20368;-56
2022/10/13 01:45:57;;;;;;;;;;;;;;;10.23;82.27;98563.69;5051977;28;19925;-56
2022/10/13 01:48:26;;;;;;;;;;;;;;;10.27;82.02;98566.66;5070099;28;19932;-56
2022/10/13 01:50:55;;;;;;;;;;;;;;;10.30;81.67;98558.72;5070719;28;19960;-56
2022/10/13 01:53:23;;;;;;;;;;;;;;;10.24;81.72;98559.91;5073860;28;19924;-56
2022/10/13 01:55:55;;;;;;;;;;;;;;;10.21;81.61;98560.44;5066852;28;20305;-56
2022/10/13 01:58:23;;;;;;;;;;;;;;;10.14;81.62;98555.38;5068261;28;20897;-56
2022/10/13 02:00:55;;;;;;;;;;;;;;;10.07;82.10;98551.44;5074901;28;19924;-56
2022/10/13 02:03:23;;;;;;;;;;;;;;;10.02;82.14;98552.31;5069873;28;19932;-56
2022/10/13 02:05:57;;;;;;;;;;;;;;;10.00;82.39;98545.53;5070598;28;19931;-56
2022/10/13 02:08:28;;;;;;;;;;;;;;;9.95;82.55;98549.13;5052148;28;19924;-56
2022/10/13 02:10:57;;;;;;;;;;;;;;;10.03;82.57;98542.25;5070013;28;20011;-56
2022/10/13 02:13:50;;;;;;;;;;;;;;;10.00;82.75;98537.38;5085856;28;19946;-56
2022/10/13 02:16:25;;;;;;;;;;;;;;;10.02;82.36;98529.78;5060193;28;19947;-56
2022/10/13 02:18:55;;;;;;;;;;;;;;;9.95;82.37;98533.63;5069533;28;20011;-56
2022/10/13 02:21:24;;;;;;;;;;;;;;;9.82;82.62;98539.00;5069915;28;20425;-56
2022/10/13 02:23:54;;;;;;;;;;;;;;;9.55;84.09;98531.44;5070026;28;20023;-56
2022/10/13 02:26:22;;;;;;;;;;;;;;;9.70;83.43;98529.38;5085620;28;20023;-56
2022/10/13 02:29:00;;;;;;;;;;;;;;;9.76;83.11;98527.41;5070359;28;19932;-56
2022/10/13 02:31:28;;;;;;;;;;;;;;;9.74;83.02;98529.56;5069916;28;19924;-56
2022/10/13 02:33:56;;;;;;;;;;;;;;;9.80;82.69;98536.56;5066266;28;19925;-56
2022/10/13 02:36:49;;;;;;;;;;;;;;;9.76;82.58;98537.44;5055623;28;19967;-56
2022/10/13 02:39:18;;;;;;;;;;;;;;;9.76;82.43;98538.25;5071319;28;20376;-56
2022/10/13 02:41:53;;;;;;;;;;;;;;;9.79;82.12;98526.78;5073068;28;19928;-56
2022/10/13 02:44:23;;;;;;;;;;;;;;;9.77;81.84;98533.63;5070805;28;19932;-56
2022/10/13 02:46:52;;;;;;;;;;;;;;;9.67;81.78;98538.06;5073749;28;19974;-56
2022/10/13 02:49:20;;;;;;;;;;;;;;;9.69;81.65;98529.63;5065705;28;19931;-56
2022/10/13 02:51:47;;;;;;;;;;;;;;;9.71;81.69;98525.53;5073547;28;20319;-56
2022/10/13 02:54:16;;;;;;;;;;;;;;;9.74;81.40;98529.56;5076798;28;19952;-56
2022/10/13 02:56:45;;;;;;;;;;;;;;;9.63;80.98;98522.66;5039601;28;19970;-55
2022/10/13 02:59:13;;;;;;;;;;;;;;;9.69;81.20;98526.91;5033353;28;20344;-56
2022/10/13 03:01:43;;;;;;;;;;;;;;;9.69;81.17;98518.78;5032655;28;20039;-56
2022/10/13 03:04:11;;;;;;;;;;;;;;;9.64;81.09;98522.38;5033653;28;20263;-56
2022/10/13 03:06:39;;;;;;;;;;;;;;;9.61;81.66;98514.00;5032561;28;19931;-56
2022/10/13 03:09:07;;;;;;;;;;;;;;;9.55;81.67;98518.69;5033626;28;19925;-56
2022/10/13 03:11:35;;;;;;;;;;;;;;;9.58;81.76;98520.81;5032196;28;20477;-56
2022/10/13 03:14:05;;;;;;;;;;;;;;;9.64;81.72;98519.69;5032792;28;19925;-56
2022/10/13 03:16:58;;;;;;;;;;;;;;;9.69;81.24;98525.03;5044372;28;19936;-56
2022/10/13 03:19:27;;;;;;;;;;;;;;;9.62;81.59;98521.03;5032813;28;20016;-56
2022/10/13 03:21:55;;;;;;;;;;;;;;;9.73;81.45;98524.44;5035462;28;20278;-56
2022/10/13 03:24:22;;;;;;;;;;;;;;;9.70;81.21;98520.41;5032668;28;20015;-56
2022/10/13 03:26:50;;;;;;;;;;;;;;;9.75;81.26;98524.94;5031810;28;19948;-56
2022/10/13 03:29:22;;;;;;;;;;;;;;;9.70;81.13;98521.22;5032095;28;19925;-56
2022/10/13 03:31:50;;;;;;;;;;;;;;;9.65;81.27;98525.91;5028942;28;19925;-56
2022/10/13 03:34:19;;;;;;;;;;;;;;;9.63;81.43;98522.66;5039198;28;19928;-56
2022/10/13 03:36:49;;;;;;;;;;;;;;;9.72;81.21;98512.78;5031457;28;20043;-56
2022/10/13 03:39:17;;;;;;;;;;;;;;;9.64;81.48;98518.84;5037558;28;19932;-56
2022/10/13 03:42:10;;;;;;;;;;;;;;;9.66;81.10;98525.59;5032628;28;19951;-56
2022/10/13 03:44:42;;;;;;;;;;;;;;;9.49;82.08;98516.34;5038291;28;19925;-56
2022/10/13 03:50:02;;;;;;;;;;;;;;;9.62;81.61;98518.34;5032464;28;19933;-56
2022/10/13 03:52:30;;;;;;;;;;;;;;;9.66;81.63;98516.66;5032409;28;19925;-56
2022/10/13 03:54:58;;;;;;;;;;;;;;;9.61;81.69;98514.00;5030320;28;19987;-56
2022/10/13 03:57:52;;;;;;;;;;;;;;;9.69;81.76;98510.63;5054823;28;19925;-56
2022/10/13 04:00:47;;;;;;;;;;;;;;;9.72;81.69;98507.34;5032051;28;20008;-56
2022/10/13 04:03:15;;;;;;;;;;;;;;;9.76;81.59;98504.88;5029939;28;19929;-56
2022/10/13 04:05:44;;;;;;;;;;;;;;;9.80;81.34;98512.16;5031481;28;20011;-55
2022/10/13 04:08:12;;;;;;;;;;;;;;;9.74;81.35;98499.72;5029373;28;19925;-56
2022/10/13 04:10:44;;;;;;;;;;;;;;;9.77;81.13;98501.88;5029723;28;20407;-56
2022/10/13 04:13:37;;;;;;;;;;;;;;;9.74;81.15;98507.06;5031625;28;20024;-56
2022/10/13 04:16:30;;;;;;;;;;;;;;;9.80;81.26;98501.28;5031419;28;19929;-56
2022/10/13 04:18:59;;;;;;;;;;;;;;;9.79;81.32;98502.38;5032101;28;20382;-56
2022/10/13 04:21:27;;;;;;;;;;;;;;;9.77;81.47;98507.28;5030728;28;19925;-55
2022/10/13 04:23:57;;;;;;;;;;;;;;;9.81;81.89;98513.75;5031777;28;19925;-56
2022/10/13 04:26:26;;;;;;;;;;;;;;;9.89;81.73;98512.28;5027757;28;20210;-56
2022/10/13 04:28:54;;;;;;;;;;;;;;;9.88;81.83;98511.47;5031418;28;20453;-56
2022/10/13 04:31:22;;;;;;;;;;;;;;;9.81;81.96;98508.34;5021739;28;19925;-56
2022/10/13 04:33:51;;;;;;;;;;;;;;;9.77;81.87;98501.88;5020584;28;19932;-56
2022/10/13 04:36:19;;;;;;;;;;;;;;;9.86;81.86;98500.13;5029513;28;19964;-56
2022/10/13 04:38:49;;;;;;;;;;;;;;;9.94;81.69;98496.75;5031168;28;19932;-57
2022/10/13 04:41:17;;;;;;;;;;;;;;;10.05;81.40;98491.16;5029669;28;19933;-57
2022/10/13 04:43:47;;;;;;;;;;;;;;;10.05;81.18;98488.47;5029781;28;20012;-57
2022/10/13 04:46:17;;;;;;;;;;;;;;;10.01;81.27;98501.81;5030489;28;20060;-57
2022/10/13 04:48:45;;;;;;;;;;;;;;;9.87;82.24;98490.88;5030365;28;19936;-57
2022/10/13 04:51:16;;;;;;;;;;;;;;;10.06;81.55;98492.78;5029117;28;19941;-57
2022/10/13 04:53:45;;;;;;;;;;;;;;;10.07;81.53;98489.00;5029510;28;20020;-57
2022/10/13 04:56:14;;;;;;;;;;;;;;;10.08;81.34;98480.53;5032744;28;19929;-57
2022/10/13 04:58:45;;;;;;;;;;;;;;;10.05;81.61;98480.31;5052603;28;19985;-57
2022/10/13 05:01:14;;;;;;;;;;;;;;;10.10;81.65;98477.53;5079496;28;19928;-57
2022/10/13 05:03:50;;;;;;;;;;;;;;;10.17;81.69;98483.38;5070309;28;19925;-56
2022/10/13 05:06:20;;;;;;;;;;;;;;;10.16;81.72;98482.59;5050849;28;19924;-56
2022/10/13 05:08:49;;;;;;;;;;;;;;;10.13;81.81;98480.47;5052767;28;19983;-58
2022/10/13 05:11:42;;;;;;;;;;;;;;;10.16;81.47;98487.22;5050865;28;20458;-56
2022/10/13 05:14:35;;;;;;;;;;;;;;;10.09;81.42;98487.59;5065888;28;19925;-56
2022/10/13 05:17:07;;;;;;;;;;;;;;;10.17;81.54;98491.53;5070389;28;19977;-56
2022/10/13 05:19:35;;;;;;;;;;;;;;;10.19;81.48;98489.34;5068189;28;19986;-57
2022/10/13 05:22:05;;;;;;;;;;;;;;;10.20;81.55;98475.47;5071135;28;20337;-56
2022/10/13 05:24:36;;;;;;;;;;;;;;;10.26;81.95;98470.78;5058170;28;20378;-57
2022/10/13 05:27:05;;;;;;;;;;;;;;;10.27;82.24;98464.25;5067028;28;19925;-57
2022/10/13 05:29:33;;;;;;;;;;;;;;;10.33;82.17;98470.41;5067998;28;19932;-57
2022/10/13 05:32:02;;;;;;;;;;;;;;;10.37;82.17;98468.72;5069865;28;19928;-56
2022/10/13 05:34:29;;;;;;;;;;;;;;;10.39;82.14;98471.97;5066446;28;19928;-56
2022/10/13 05:36:58;;;;;;;;;;;;;;;10.41;82.41;98484.13;5068947;28;20377;-57
2022/10/13 05:39:27;;;;;;;;;;;;;;;10.41;82.56;98484.13;5042883;28;19925;-57
2022/10/13 05:41:55;;;;;;;;;;;;;;;10.35;82.81;98479.09;5063337;28;20385;-56
2022/10/13 05:44:26;;;;;;;;;;;;;;;10.44;82.53;98483.56;5066284;28;19928;-56
2022/10/13 05:47:17;;;;;;;;;;;;;;;10.52;82.57;98483.97;5064385;28;20428;-56
2022/10/13 05:49:45;;;;;;;;;;;;;;;10.52;82.46;98489.41;5067284;28;19936;-56
2022/10/13 05:52:15;;;;;;;;;;;;;;;10.58;82.40;98490.94;5060320;28;20349;-60
2022/10/13 05:54:45;;;;;;;;;;;;;;;10.58;82.39;98488.22;5065628;28;19940;-56
2022/10/13 05:57:14;;;;;;;;;;;;;;;10.60;82.50;98494.16;5054068;28;20015;-56
2022/10/13 05:59:43;;;;;;;;;;;;;;;10.62;82.49;98489.25;5062808;28;20022;-57
2022/10/13 06:02:12;;;;;;;;;;;;;;;10.62;82.27;98489.25;5056759;28;19924;-56
2022/10/13 06:04:41;;;;;;;;;;;;;;;10.54;82.54;98498.06;5066266;28;19936;-57
2022/10/13 06:07:09;;;;;;;;;;;;;;;10.64;82.36;98495.97;5050405;28;19928;-56
2022/10/13 06:09:38;;;;;;;;;;;;;;;10.64;82.22;98495.19;5066410;28;19932;-57
2022/10/13 06:12:08;;;;;;;;;;;;;;;10.61;82.30;98490.34;5072586;28;19928;-56
2022/10/13 06:14:36;;;;;;;;;;;;;;;10.59;82.27;98485.19;5072215;28;20281;-56
2022/10/13 06:17:06;;;;;;;;;;;;;;;10.65;82.36;98486.75;5062844;28;19950;-56
2022/10/13 06:19:34;;;;;;;;;;;;;;;10.68;82.29;98483.41;5072708;28;19924;-56
2022/10/13 06:22:08;;;;;;;;;;;;;;;10.69;82.15;98484.22;5072173;28;19928;-60
2022/10/13 06:24:36;;;;;;;;;;;;;;;10.75;81.88;98489.25;5068181;28;19925;-56
2022/10/13 06:27:09;;;;;;;;;;;;;;;10.74;81.74;98493.09;5068858;28;20011;-57
2022/10/13 06:29:37;;;;;;;;;;;;;;;10.72;82.02;98494.50;5070632;28;20039;-56
2022/10/13 06:32:05;;;;;;;;;;;;;;;10.65;82.19;98505.78;5070320;28;20270;-56
2022/10/13 06:34:33;;;;;;;;;;;;;;;10.71;82.12;98493.72;5070040;28;19928;-56
2022/10/13 06:37:26;;;;;;;;;;;;;;;10.77;82.10;98501.78;5070657;28;19928;-57
2022/10/13 06:39:55;;;;;;;;;;;;;;;10.72;81.76;98492.59;5074110;28;19947;-57
2022/10/13 06:42:25;;;;;;;;;;;;;;;10.76;82.05;98506.41;5082724;28;20266;-58
2022/10/13 06:45:08;;;;;;;;;;;;;;;10.75;82.08;98502.06;5052920;28;19928;-57
2022/10/13 06:47:39;;;;;;;;;;;;;;;10.77;81.66;98494.44;5053644;28;19924;-57
2022/10/13 06:50:08;;;;;;;;;;;;;;;10.78;81.84;98506.09;5051478;28;19960;-57
2022/10/13 06:52:35;;;;;;;;;;;;;;;10.80;81.76;98503.88;5054452;28;19932;-57
2022/10/13 06:55:04;;;;;;;;;;;;;;;10.79;81.71;98500.38;5070669;28;20016;-57
2022/10/13 06:57:57;;;;;;;;;;;;;;;10.83;81.82;98506.81;5071319;28;19928;-56
2022/10/13 07:00:26;;;;;;;;;;;;;;;10.82;81.56;98510.66;5066891;28;19924;-57
2022/10/13 07:02:54;;;;;;;;;;;;;;;10.87;81.32;98510.56;5066074;28;19952;-56
2022/10/13 07:05:22;;;;;;;;;;;;;;;10.85;81.57;98511.94;5084439;28;19990;-56
2022/10/13 07:07:51;;;;;;;;;;;;;;;10.84;81.45;98502.19;5063851;28;20290;-56
2022/10/13 07:10:20;;;;;;;;;;;;;;;10.87;81.23;98507.84;5055769;28;19924;-57
2022/10/13 07:12:48;;;;;;;;;;;;;;;10.89;81.46;98502.91;5085224;28;19952;-56
2022/10/13 07:15:17;;;;;;;;;;;;;;;10.95;81.14;98500.91;5071913;28;20317;-57
2022/10/13 07:17:52;;;;;;;;;;;;;;;10.96;80.64;98497.06;5070640;28;19928;-56
2022/10/13 07:20:21;;;;;;;;;;;;;;;10.91;81.36;98492.53;5053281;28;20015;-56
2022/10/13 07:22:52;;;;;;;;;;;;;;;10.90;81.20;98488.19;5081958;28;19925;-57
2022/10/13 07:25:20;;;;;;;;;;;;;;;10.89;81.50;98485.78;5068638;28;19954;-56
2022/10/13 07:27:48;;;;;;;;;;;;;;;10.93;81.43;98490.34;5071371;28;19960;-56
2022/10/13 07:30:40;;;;;;;;;;;;;;;11.01;81.44;98495.06;5067193;28;19947;-56
2022/10/13 07:36:02;;;;;;;;;;;;;;;11.12;80.60;98497.59;5068490;28;19931;-57
2022/10/13 07:38:32;;;;;;;;;;;;;;;11.15;80.46;98497.00;5070847;28;19933;-56
2022/10/13 07:41:01;;;;;;;;;;;;;;;11.17;80.53;98494.78;5065985;28;20385;-56
2022/10/13 07:43:30;;;;;;;;;;;;;;;11.23;80.25;98493.59;5071055;28;20270;-56
2022/10/13 07:46:46;;;;;;;;;;;;;;;11.22;80.30;98502.84;5070261;28;20079;-57
2022/10/13 07:49:16;;;;;;;;;;;;;;;11.23;80.18;98501.75;5071068;28;19985;-57
2022/10/13 07:51:45;;;;;;;;;;;;;;;11.17;79.71;98494.78;5071166;28;19924;-56
2022/10/13 07:54:18;;;;;;;;;;;;;;;11.04;80.56;98501.03;5070208;28;19939;-57
2022/10/13 07:56:50;;;;;;;;;;;;;;;11.11;80.27;98491.34;5045005;28;20007;-56
2022/10/13 07:59:43;;;;;;;;;;;;;;;11.14;80.63;98487.25;5060289;28;19932;-57
2022/10/13 08:02:12;;;;;;;;;;;;;;;11.11;80.42;98493.28;5019336;28;19979;-57
2022/10/13 08:04:42;;;;;;;;;;;;;;;11.13;80.03;98496.50;5030719;28;20423;-57
2022/10/13 08:07:15;;;;;;;;;;;;;;;11.21;79.98;98490.38;5030667;28;20436;-56
2022/10/13 08:09:47;;;;;;;;;;;;;;;11.21;79.85;98491.16;5033058;28;19952;-57
2022/10/13 08:12:17;;;;;;;;;;;;;;;11.26;80.20;98484.84;5030378;28;19951;-57
2022/10/13 08:14:45;;;;;;;;;;;;;;;11.32;79.69;98499.13;5032107;28;19929;-56
2022/10/13 08:17:15;;;;;;;;;;;;;;;11.34;79.52;98494.19;5027540;28;20112;-57
2022/10/13 08:19:44;;;;;;;;;;;;;;;11.35;79.77;98488.47;5031704;28;20374;-56
2022/10/13 08:22:13;;;;;;;;;;;;;;;11.39;79.64;98489.47;5032923;28;19929;-56
2022/10/13 08:24:41;;;;;;;;;;;;;;;11.38;80.22;98482.41;5042252;28;19925;-57
2022/10/13 08:27:09;;;;;;;;;;;;;;;11.44;79.69;98483.91;5063334;28;20023;-57
2022/10/13 08:29:38;;;;;;;;;;;;;;;11.45;79.72;98484.72;5027288;28;19930;-56
2022/10/13 08:32:06;;;;;;;;;;;;;;;11.51;79.56;98488.97;5022491;28;20382;-57
2022/10/13 08:34:35;;;;;;;;;;;;;;;11.45;79.52;98482.84;5027986;28;19925;-57
2022/10/13 08:37:05;;;;;;;;;;;;;;;11.50;79.74;98485.44;5025012;28;19980;-57
2022/10/13 08:39:59;;;;;;;;;;;;;;;11.42;79.85;98483.44;5032947;28;19937;-57
2022/10/13 08:42:27;;;;;;;;;;;;;;;11.50;80.07;98481.91;5026912;28;20297;-57
2022/10/13 08:44:56;;;;;;;;;;;;;;;11.52;80.05;98479.69;5027859;28;20059;-56
2022/10/13 08:47:45;;;;;;;;;;;;;;;11.55;79.48;98492.69;5026603;28;19925;-57
2022/10/13 08:50:13;;;;;;;;;;;;;;;11.54;79.50;98489.16;5020180;28;19925;-56
2022/10/13 08:52:45;;;;;;;;;;;;;;;11.54;79.39;98488.34;5025242;28;19925;-57
2022/10/13 08:55:38;;;;;;;;;;;;;;;11.62;79.37;98492.28;5023684;28;19929;-56
2022/10/13 08:58:09;;;;;;;;;;;;;;;11.64;79.77;98487.34;5055607;28;19928;-56
2022/10/13 09:00:40;;;;;;;;;;;;;;;11.68;79.58;98480.19;5065979;28;21334;-56
2022/10/13 09:03:17;;;;;;;;;;;;;;;11.71;79.43;98479.56;5070281;28;19928;-57
2022/10/13 09:05:47;;;;;;;;;;;;;;;11.71;79.78;98480.38;5067195;28;19928;-56
2022/10/13 09:08:16;;;;;;;;;;;;;;;11.77;79.72;98481.06;5061074;28;20404;-56
2022/10/13 09:10:48;;;;;;;;;;;;;;;11.79;79.41;98485.09;5069149;28;19928;-56
2022/10/13 09:13:43;;;;;;;;;;;;;;;11.82;79.37;98486.44;5051468;28;20377;-56
2022/10/13 09:16:41;;;;;;;;;;;;;;;11.80;79.57;98485.91;5066268;28;19924;-57
2022/10/13 09:19:14;;;;;;;;;;;;;;;11.75;79.79;98481.38;5065691;28;20007;-56
2022/10/13 09:21:42;;;;;;;;;;;;;;;11.82;79.67;98478.25;5070379;28;19925;-56
2022/10/13 09:24:13;;;;;;;;;;;;;;;11.84;79.58;98477.97;5066140;28;20250;-56
2022/10/13 09:26:42;;;;;;;;;;;;;;;11.87;79.80;98475.44;5078737;28;19956;-57
2022/10/13 09:29:12;;;;;;;;;;;;;;;11.83;79.88;98469.00;5047487;28;19929;-56
2022/10/13 09:31:39;;;;;;;;;;;;;;;11.89;79.70;98456.88;5064328;28;19925;-56
2022/10/13 09:34:12;;;;;;;;;;;;;;;11.93;79.53;98462.50;5067534;28;20373;-57
2022/10/13 09:36:42;;;;;;;;;;;;;;;11.98;79.64;98455.03;5072209;28;20383;-57
2022/10/13 09:39:13;;;;;;;;;;;;;;;12.03;79.27;98457.63;5069194;28;19932;-56
2022/10/13 09:41:44;;;;;;;;;;;;;;;12.10;79.48;98461.88;5062140;28;19951;-56
2022/10/13 09:44:13;;;;;;;;;;;;;;;12.11;79.43;98452.59;5056592;28;19924;-57
2022/10/13 09:46:46;;;;;;;;;;;;;;;12.17;79.42;98445.91;5068873;28;19928;-57
2022/10/13 09:49:29;;;;;;;;;;;;;;;12.23;79.46;98459.09;5070593;28;19924;-57
2022/10/13 09:52:01;;;;;;;;;;;;;;;12.25;79.12;98461.50;5054562;28;19928;-57
2022/10/13 09:54:36;;;;;;;;;;;;;;;12.29;79.14;98459.78;5073553;28;19954;-56
2022/10/13 09:57:06;;;;;;;;;;;;;;;12.33;79.35;98461.56;5071769;28;20410;-56
2022/10/13 09:59:34;;;;;;;;;;;;;;;12.41;78.98;98465.50;5070504;28;19931;-62
2022/10/13 10:02:29;;;;;;;;;;;;;;;12.40;79.18;98461.13;5070199;28;19981;-56
2022/10/13 10:04:58;;;;;;;;;;;;;;;12.37;78.64;98469.94;5086362;28;19924;-56
2022/10/13 10:07:27;;;;;;;;;;;;;;;12.45;78.94;98468.38;5067768;28;19932;-56
2022/10/13 10:10:00;;;;;;;;;;;;;;;12.53;78.68;98465.72;5073716;28;19959;-56
2022/10/13 10:12:29;;;;;;;;;;;;;;;12.57;77.92;98464.00;5069238;28;19931;-56
2022/10/13 10:14:57;;;;;;;;;;;;;;;12.56;78.32;98467.03;5072121;28;19924;-57
2022/10/13 10:17:28;;;;;;;;;;;;;;;12.50;78.36;98465.53;5071887;28;20381;-57
2022/10/13 10:20:02;;;;;;;;;;;;;;;12.49;78.38;98470.19;5089148;28;19995;-57
2022/10/13 10:22:34;;;;;;;;;;;;;;;12.38;78.40;98473.47;5055477;28;20031;-57
2022/10/13 10:25:07;;;;;;;;;;;;;;;12.40;78.85;98466.59;5055779;28;19936;-56
2022/10/13 10:27:35;;;;;;;;;;;;;;;12.38;79.22;98468.81;5073297;28;19928;-57
2022/10/13 10:30:09;;;;;;;;;;;;;;;12.37;79.24;98461.78;5072751;28;19977;-56
2022/10/13 10:32:39;;;;;;;;;;;;;;;12.39;79.36;98461.47;5065038;28;19963;-57
2022/10/13 10:35:11;;;;;;;;;;;;;;;12.33;79.58;98447.94;5056673;28;19971;-57
2022/10/13 10:37:46;;;;;;;;;;;;;;;12.35;79.99;98447.63;5058363;28;19986;-57
2022/10/13 10:40:19;;;;;;;;;;;;;;;12.51;79.84;98439.88;5073105;28;20031;-57
2022/10/13 10:42:55;;;;;;;;;;;;;;;12.61;79.84;98449.75;5056876;28;20385;-57
2022/10/13 10:45:23;;;;;;;;;;;;;;;12.59;79.48;98436.44;5068668;28;19978;-57
2022/10/13 10:47:51;;;;;;;;;;;;;;;12.65;79.77;98428.94;5073801;28;19970;-56
2022/10/13 10:50:22;;;;;;;;;;;;;;;12.71;79.66;98430.41;5072643;28;20375;-57
2022/10/13 10:53:14;;;;;;;;;;;;;;;12.74;79.47;98424.34;5087937;28;19931;-56
2022/10/13 10:55:46;;;;;;;;;;;;;;;12.82;79.32;98421.63;5071301;28;19937;-56
2022/10/13 10:58:21;;;;;;;;;;;;;;;12.88;78.54;98426.94;5070574;28;19928;-57
2022/10/13 11:00:51;;;;;;;;;;;;;;;12.94;78.54;98421.03;5070900;28;20352;-57
2022/10/13 11:03:22;;;;;;;;;;;;;;;13.02;78.07;98414.84;5073129;28;19971;-57
2022/10/13 11:06:11;;;;;;;;;;;;;;;13.21;77.00;98400.13;5074479;28;19929;-57
2022/10/13 11:08:39;;;;;;;;;;;;;;;13.32;77.21;98399.56;5045369;28;20362;-57
2022/10/13 11:11:35;;;;;;;;;;;;;;;13.39;76.63;98392.84;5073004;28;19925;-57
2022/10/13 11:14:35;;;;;;;;;;;;;;;13.47;76.39;98387.38;5039265;28;20035;-57
2022/10/13 11:17:16;;;;;;;;;;;;;;;13.54;75.69;98379.53;5070519;28;19925;-57
2022/10/13 11:19:45;;;;;;;;;;;;;;;13.68;75.58;98373.91;5073375;28;19924;-57
2022/10/13 11:22:16;;;;;;;;;;;;;;;13.86;74.84;98374.75;5079039;28;19966;-57
2022/10/13 11:24:45;;;;;;;;;;;;;;;13.88;74.39;98375.22;5072113;28;19925;-57
2022/10/13 11:27:24;;;;;;;;;;;;;;;13.92;74.16;98380.84;5072218;28;20116;-57
2022/10/13 11:29:53;;;;;;;;;;;;;;;13.98;73.54;98383.09;5072145;28;19939;-57
2022/10/13 11:32:52;;;;;;;;;;;;;;;13.91;73.68;98385.50;5070083;28;20007;-57
2022/10/13 11:35:22;;;;;;;;;;;;;;;13.93;73.77;98382.44;5071775;28;19971;-57
2022/10/13 11:37:52;;;;;;;;;;;;;;;13.96;73.92;98385.34;5052221;28;19963;-57
2022/10/13 11:40:34;;;;;;;;;;;;;;;14.02;73.31;98375.06;5071753;28;19932;-57
2022/10/13 11:43:22;;;;;;;;;;;;;;;14.06;73.77;98368.63;5072534;28;19932;-57
2022/10/13 11:46:01;;;;;;;;;;;;;;;14.12;72.99;98372.00;5034853;28;19972;-57
2022/10/13 11:48:47;;;;;;;;;;;;;;;14.11;73.23;98365.75;5070527;28;19924;-57
2022/10/13 11:51:22;;;;;;;;;;;;;;;14.11;73.13;98363.00;5039856;28;19932;-57
2022/10/13 11:53:57;;;;;;;;;;;;;;;14.13;73.31;98352.56;5078494;28;19932;-56
2022/10/13 11:56:32;;;;;;;;;;;;;;;14.15;72.75;98352.22;5061743;28;19929;-57
2022/10/13 11:59:00;;;;;;;;;;;;;;;14.09;73.61;98348.84;5071864;28;19924;-57
2022/10/13 12:01:28;;;;;;;;;;;;;;;14.13;73.09;98349.03;5066211;28;19960;-57
2022/10/13 12:03:57;;;;;;;;;;;;;;;14.16;72.54;98342.88;5071092;28;19925;-57
2022/10/13 12:06:32;;;;;;;;;;;;;;;14.15;72.79;98347.56;5071940;28;19967;-56
2022/10/13 12:09:01;;;;;;;;;;;;;;;14.15;72.71;98339.34;5071553;28;19932;-56
2022/10/13 12:11:31;;;;;;;;;;;;;;;14.12;72.62;98345.47;5071524;28;19924;-57
2022/10/13 12:13:58;;;;;;;;;;;;;;;14.16;72.53;98337.41;5071502;28;19925;-57
2022/10/13 12:16:27;;;;;;;;;;;;;;;14.15;72.57;98342.09;5070979;28;19928;-57
2022/10/13 12:19:06;;;;;;;;;;;;;;;14.11;72.52;98330.22;5071785;28;19925;-57
2022/10/13 12:21:47;;;;;;;;;;;;;;;14.11;72.54;98330.22;5081561;28;19924;-57
2022/10/13 12:24:15;;;;;;;;;;;;;;;14.06;72.79;98319.47;5069427;28;19925;-57
2022/10/13 12:26:43;;;;;;;;;;;;;;;14.04;73.36;98327.16;5070469;28;19929;-57
2022/10/13 12:29:12;;;;;;;;;;;;;;;14.06;74.05;98322.19;5076358;28;20042;-57
2022/10/13 12:34:35;;;;;;;;;;;;;;;14.07;73.21;98321.06;5053375;28;20343;-57
2022/10/13 12:37:05;;;;;;;;;;;;;;;14.08;73.43;98322.66;5073309;28;19924;-57
2022/10/13 12:39:33;;;;;;;;;;;;;;;14.05;73.48;98306.91;5068706;28;20435;-56
2022/10/13 12:42:02;;;;;;;;;;;;;;;14.08;73.46;98300.00;5071155;28;19964;-57
2022/10/13 12:47:37;;;;;;;;;;;;;;;14.18;73.50;98298.88;5068629;28;19929;-57
2022/10/13 12:50:35;;;;;;;;;;;;;;;14.20;73.29;98299.31;5069451;28;19925;-57
2022/10/13 12:53:11;;;;;;;;;;;;;;;14.21;73.39;98298.19;5008404;28;19929;-57
2022/10/13 12:55:46;;;;;;;;;;;;;;;14.28;73.49;98298.53;5061063;28;20007;-57
2022/10/13 12:58:16;;;;;;;;;;;;;;;14.34;73.04;98298.00;5070459;28;19932;-56
2022/10/13 13:00:46;;;;;;;;;;;;;;;14.36;72.96;98301.22;5065633;28;19924;-57
2022/10/13 13:03:20;;;;;;;;;;;;;;;14.34;72.97;98295.28;5049144;28;20040;-57
2022/10/13 13:05:48;;;;;;;;;;;;;;;14.40;72.54;98304.09;5082523;28;19928;-57
2022/10/13 13:08:24;;;;;;;;;;;;;;;14.41;72.88;98305.69;5064322;28;19924;-57
2022/10/13 13:10:56;;;;;;;;;;;;;;;14.43;73.57;98300.69;5069665;28;19932;-57
2022/10/13 13:16:42;;;;;;;;;;;;;;;14.47;72.87;98303.59;5068812;28;19931;-57
2022/10/13 13:19:20;;;;;;;;;;;;;;;14.41;72.29;98298.31;5064778;28;19924;-57
2022/10/13 13:21:48;;;;;;;;;;;;;;;14.45;73.01;98295.72;5068347;28;19928;-57
2022/10/13 13:24:18;;;;;;;;;;;;;;;14.47;73.43;98295.38;5067072;28;20369;-57
2022/10/13 13:27:17;;;;;;;;;;;;;;;14.47;73.16;98293.47;5065696;28;19986;-57
2022/10/13 13:29:47;;;;;;;;;;;;;;;14.45;72.49;98295.72;5063936;28;19924;-57
2022/10/13 13:32:16;;;;;;;;;;;;;;;14.42;73.20;98297.16;5068638;28;19929;-57
2022/10/13 13:34:46;;;;;;;;;;;;;;;14.39;73.49;98299.78;5050180;28;20460;-57
2022/10/13 13:37:17;;;;;;;;;;;;;;;14.38;72.68;98292.66;5070612;28;19932;-57
2022/10/13 13:39:47;;;;;;;;;;;;;;;14.41;72.94;98292.03;5070716;28;19931;-57